sensor_id;sensor_type;location;lat;lon;timestamp;temperature;humidity
11188;DHT22;5650;52.700;7.306;2023-09-30T00:00:14;12.80;99.90
11188;DHT22;5650;52.700;7.306;2023-09-30T00:02:49;12.80;99.90
11188;DHT22;5650;52.700;7.306;2023-09-30T00:05:28;12.80;99.90
11188;DHT22;5650;52.700;7.306;2023-09-30T00:07:58;12.70;99.90
11188;DHT22;5650;52.700;7.306;2023-09-30T00:10:25;12.70;99.90
11188;DHT22;5650;52.700;7.306;2023-09-30T00:12:53;12.70;99.90
11188;DHT22;5650;52.700;7.306;2023-09-30T00:15:20;12.70;99.90
11188;DHT22;5650;52.700;7.306;2023-09-30T00:17:48;12.70;99.90
11188;DHT22;5650;52.700;7.306;2023-09-30T00:20:22;12.70;99.90
11188;DHT22;5650;52.700;7.306;2023-09-30T00:22:49;12.70;99.90
11188;DHT22;5650;52.700;7.306;2023-09-30T00:25:22;12.70;99.90
11188;DHT22;5650;52.700;7.306;2023-09-30T00:27:49;12.60;99.90
11188;DHT22;5650;52.700;7.306;2023-09-30T00:30:16;12.60;99.90
11188;DHT22;5650;52.700;7.306;2023-09-30T00:32:48;12.60;99.90
11188;DHT22;5650;52.700;7.306;2023-09-30T00:35:15;12.60;99.90
11188;DHT22;5650;52.700;7.306;2023-09-30T00:37:43;12.60;99.90
11188;DHT22;5650;52.700;7.306;2023-09-30T00:40:11;12.60;99.90
11188;DHT22;5650;52.700;7.306;2023-09-30T00:42:39;12.60;99.90
11188;DHT22;5650;52.700;7.306;2023-09-30T00:45:07;12.60;99.90
11188;DHT22;5650;52.700;7.306;2023-09-30T00:47:36;12.60;99.90
11188;DHT22;5650;52.700;7.306;2023-09-30T00:50:11;12.60;99.90
11188;DHT22;5650;52.700;7.306;2023-09-30T00:52:39;12.60;99.90
11188;DHT22;5650;52.700;7.306;2023-09-30T00:55:07;12.50;99.90
11188;DHT22;5650;52.700;7.306;2023-09-30T00:57:36;12.50;99.90
11188;DHT22;5650;52.700;7.306;2023-09-30T01:00:06;12.50;99.90
11188;DHT22;5650;52.700;7.306;2023-09-30T01:02:38;12.50;99.90
11188;DHT22;5650;52.700;7.306;2023-09-30T01:05:06;12.50;99.90
11188;DHT22;5650;52.700;7.306;2023-09-30T01:07:36;12.50;99.90
11188;DHT22;5650;52.700;7.306;2023-09-30T01:10:03;12.50;99.90
11188;DHT22;5650;52.700;7.306;2023-09-30T01:12:36;12.50;99.90
11188;DHT22;5650;52.700;7.306;2023-09-30T01:15:07;12.50;99.90
11188;DHT22;5650;52.700;7.306;2023-09-30T01:17:36;12.50;99.90
11188;DHT22;5650;52.700;7.306;2023-09-30T01:20:03;12.50;99.90
11188;DHT22;5650;52.700;7.306;2023-09-30T01:22:39;12.50;99.90
11188;DHT22;5650;52.700;7.306;2023-09-30T01:25:07;12.50;99.90
11188;DHT22;5650;52.700;7.306;2023-09-30T01:27:35;12.50;99.90
11188;DHT22;5650;52.700;7.306;2023-09-30T01:30:03;12.50;99.90
11188;DHT22;5650;52.700;7.306;2023-09-30T01:32:34;12.50;99.90
11188;DHT22;5650;52.700;7.306;2023-09-30T01:35:07;12.50;99.90
11188;DHT22;5650;52.700;7.306;2023-09-30T01:37:35;12.60;99.90
11188;DHT22;5650;52.700;7.306;2023-09-30T01:40:10;12.60;99.90
11188;DHT22;5650;52.700;7.306;2023-09-30T01:42:40;12.60;99.90
11188;DHT22;5650;52.700;7.306;2023-09-30T01:48:25;12.60;99.90
11188;DHT22;5650;52.700;7.306;2023-09-30T01:50:55;12.60;99.90
11188;DHT22;5650;52.700;7.306;2023-09-30T01:53:25;12.60;99.90
11188;DHT22;5650;52.700;7.306;2023-09-30T01:55:54;12.60;99.90
11188;DHT22;5650;52.700;7.306;2023-09-30T01:58:24;12.60;99.90
11188;DHT22;5650;52.700;7.306;2023-09-30T02:01:00;12.60;99.90
11188;DHT22;5650;52.700;7.306;2023-09-30T02:03:28;12.60;99.90
11188;DHT22;5650;52.700;7.306;2023-09-30T02:05:58;12.60;99.90
11188;DHT22;5650;52.700;7.306;2023-09-30T02:08:32;12.60;99.90
11188;DHT22;5650;52.700;7.306;2023-09-30T02:11:10;12.60;99.90
11188;DHT22;5650;52.700;7.306;2023-09-30T02:13:39;12.50;99.90
11188;DHT22;5650;52.700;7.306;2023-09-30T02:16:11;12.50;99.90
11188;DHT22;5650;52.700;7.306;2023-09-30T02:18:38;12.50;99.90
11188;DHT22;5650;52.700;7.306;2023-09-30T02:21:09;12.50;99.90
11188;DHT22;5650;52.700;7.306;2023-09-30T02:23:36;12.50;99.90
11188;DHT22;5650;52.700;7.306;2023-09-30T02:26:08;12.50;99.90
11188;DHT22;5650;52.700;7.306;2023-09-30T02:28:35;12.50;99.90
11188;DHT22;5650;52.700;7.306;2023-09-30T02:31:03;12.50;99.90
11188;DHT22;5650;52.700;7.306;2023-09-30T02:33:30;12.50;99.90
11188;DHT22;5650;52.700;7.306;2023-09-30T02:36:01;12.40;99.90
11188;DHT22;5650;52.700;7.306;2023-09-30T02:38:31;12.40;99.90
11188;DHT22;5650;52.700;7.306;2023-09-30T02:41:01;12.40;99.90
11188;DHT22;5650;52.700;7.306;2023-09-30T02:43:32;12.40;99.90
11188;DHT22;5650;52.700;7.306;2023-09-30T02:46:06;12.30;99.90
11188;DHT22;5650;52.700;7.306;2023-09-30T02:48:37;12.30;99.90
11188;DHT22;5650;52.700;7.306;2023-09-30T02:51:10;12.30;99.90
11188;DHT22;5650;52.700;7.306;2023-09-30T02:53:37;12.30;99.90
11188;DHT22;5650;52.700;7.306;2023-09-30T02:56:04;12.30;99.90
11188;DHT22;5650;52.700;7.306;2023-09-30T02:58:33;12.30;99.90
11188;DHT22;5650;52.700;7.306;2023-09-30T03:01:07;12.30;99.90
11188;DHT22;5650;52.700;7.306;2023-09-30T03:03:35;12.30;99.90
11188;DHT22;5650;52.700;7.306;2023-09-30T03:06:02;12.30;99.90
11188;DHT22;5650;52.700;7.306;2023-09-30T03:08:33;12.30;99.90
11188;DHT22;5650;52.700;7.306;2023-09-30T03:11:07;12.30;99.90
11188;DHT22;5650;52.700;7.306;2023-09-30T03:13:35;12.30;99.90
11188;DHT22;5650;52.700;7.306;2023-09-30T03:16:03;12.30;99.90
11188;DHT22;5650;52.700;7.306;2023-09-30T03:18:31;12.30;99.90
11188;DHT22;5650;52.700;7.306;2023-09-30T03:21:03;12.30;99.90
11188;DHT22;5650;52.700;7.306;2023-09-30T03:23:39;12.30;99.90
11188;DHT22;5650;52.700;7.306;2023-09-30T03:26:06;12.30;99.90
11188;DHT22;5650;52.700;7.306;2023-09-30T03:28:37;12.30;99.90
11188;DHT22;5650;52.700;7.306;2023-09-30T03:31:04;12.30;99.90
11188;DHT22;5650;52.700;7.306;2023-09-30T03:33:32;12.30;99.90
11188;DHT22;5650;52.700;7.306;2023-09-30T03:35:59;12.30;99.90
11188;DHT22;5650;52.700;7.306;2023-09-30T03:38:27;12.30;99.90
11188;DHT22;5650;52.700;7.306;2023-09-30T03:40:54;12.30;99.90
11188;DHT22;5650;52.700;7.306;2023-09-30T03:43:24;12.30;99.90
11188;DHT22;5650;52.700;7.306;2023-09-30T03:45:53;12.20;99.90
11188;DHT22;5650;52.700;7.306;2023-09-30T03:48:22;12.20;99.90
11188;DHT22;5650;52.700;7.306;2023-09-30T03:50:53;12.20;99.90
11188;DHT22;5650;52.700;7.306;2023-09-30T03:53:20;12.20;99.90
11188;DHT22;5650;52.700;7.306;2023-09-30T03:55:57;12.30;99.90
11188;DHT22;5650;52.700;7.306;2023-09-30T03:58:28;12.20;99.90
11188;DHT22;5650;52.700;7.306;2023-09-30T04:01:00;12.20;99.90
11188;DHT22;5650;52.700;7.306;2023-09-30T04:03:28;12.20;99.90
11188;DHT22;5650;52.700;7.306;2023-09-30T04:06:20;12.20;99.90
11188;DHT22;5650;52.700;7.306;2023-09-30T04:08:50;12.20;99.90
11188;DHT22;5650;52.700;7.306;2023-09-30T04:11:18;12.10;99.90
11188;DHT22;5650;52.700;7.306;2023-09-30T04:13:46;12.10;99.90
11188;DHT22;5650;52.700;7.306;2023-09-30T04:16:15;12.10;99.90
11188;DHT22;5650;52.700;7.306;2023-09-30T04:18:44;12.10;99.90
11188;DHT22;5650;52.700;7.306;2023-09-30T04:21:11;12.10;99.90
11188;DHT22;5650;52.700;7.306;2023-09-30T04:23:39;12.10;99.90
11188;DHT22;5650;52.700;7.306;2023-09-30T04:26:07;12.10;99.90
11188;DHT22;5650;52.700;7.306;2023-09-30T04:28:35;12.10;99.90
11188;DHT22;5650;52.700;7.306;2023-09-30T04:31:02;12.10;99.90
11188;DHT22;5650;52.700;7.306;2023-09-30T04:33:32;12.10;99.90
11188;DHT22;5650;52.700;7.306;2023-09-30T04:36:01;12.10;99.90
11188;DHT22;5650;52.700;7.306;2023-09-30T04:38:28;12.10;99.90
11188;DHT22;5650;52.700;7.306;2023-09-30T04:40:56;12.10;99.90
11188;DHT22;5650;52.700;7.306;2023-09-30T04:43:23;12.10;99.90
11188;DHT22;5650;52.700;7.306;2023-09-30T04:45:54;12.10;99.90
11188;DHT22;5650;52.700;7.306;2023-09-30T04:48:22;12.10;99.90
11188;DHT22;5650;52.700;7.306;2023-09-30T04:50:51;12.20;99.90
11188;DHT22;5650;52.700;7.306;2023-09-30T04:53:19;12.20;99.90
11188;DHT22;5650;52.700;7.306;2023-09-30T04:55:46;12.20;99.90
11188;DHT22;5650;52.700;7.306;2023-09-30T04:58:15;12.20;99.90
11188;DHT22;5650;52.700;7.306;2023-09-30T05:00:42;12.20;99.90
11188;DHT22;5650;52.700;7.306;2023-09-30T05:03:09;12.20;99.90
11188;DHT22;5650;52.700;7.306;2023-09-30T05:05:36;12.20;99.90
11188;DHT22;5650;52.700;7.306;2023-09-30T05:08:07;12.20;99.90
11188;DHT22;5650;52.700;7.306;2023-09-30T05:10:37;12.20;99.90
11188;DHT22;5650;52.700;7.306;2023-09-30T05:13:07;12.20;99.90
11188;DHT22;5650;52.700;7.306;2023-09-30T05:15:37;12.20;99.90
11188;DHT22;5650;52.700;7.306;2023-09-30T05:18:04;12.20;99.90
11188;DHT22;5650;52.700;7.306;2023-09-30T05:20:34;12.20;99.90
11188;DHT22;5650;52.700;7.306;2023-09-30T05:23:06;12.20;99.90
11188;DHT22;5650;52.700;7.306;2023-09-30T05:25:34;12.20;99.90
11188;DHT22;5650;52.700;7.306;2023-09-30T05:28:03;12.20;99.90
11188;DHT22;5650;52.700;7.306;2023-09-30T05:30:31;12.20;99.90
11188;DHT22;5650;52.700;7.306;2023-09-30T05:32:58;12.20;99.90
11188;DHT22;5650;52.700;7.306;2023-09-30T05:35:28;12.10;99.90
11188;DHT22;5650;52.700;7.306;2023-09-30T05:38:01;12.10;99.90
11188;DHT22;5650;52.700;7.306;2023-09-30T05:40:34;12.10;99.90
11188;DHT22;5650;52.700;7.306;2023-09-30T05:43:01;12.10;99.90
11188;DHT22;5650;52.700;7.306;2023-09-30T05:45:32;12.10;99.90
11188;DHT22;5650;52.700;7.306;2023-09-30T05:48:04;12.10;99.90
11188;DHT22;5650;52.700;7.306;2023-09-30T05:50:32;12.20;99.90
11188;DHT22;5650;52.700;7.306;2023-09-30T05:53:02;12.20;99.90
11188;DHT22;5650;52.700;7.306;2023-09-30T05:55:31;12.20;99.90
11188;DHT22;5650;52.700;7.306;2023-09-30T05:57:59;12.20;99.90
11188;DHT22;5650;52.700;7.306;2023-09-30T06:00:34;12.20;99.90
11188;DHT22;5650;52.700;7.306;2023-09-30T06:03:03;12.30;99.90
11188;DHT22;5650;52.700;7.306;2023-09-30T06:05:32;12.30;99.90
11188;DHT22;5650;52.700;7.306;2023-09-30T06:08:01;12.40;99.90
11188;DHT22;5650;52.700;7.306;2023-09-30T06:10:31;12.40;99.90
11188;DHT22;5650;52.700;7.306;2023-09-30T06:12:58;12.50;99.90
11188;DHT22;5650;52.700;7.306;2023-09-30T06:15:26;12.50;99.90
11188;DHT22;5650;52.700;7.306;2023-09-30T06:17:54;12.50;99.90
11188;DHT22;5650;52.700;7.306;2023-09-30T06:20:21;12.60;99.90
11188;DHT22;5650;52.700;7.306;2023-09-30T06:22:52;12.60;99.90
11188;DHT22;5650;52.700;7.306;2023-09-30T06:25:20;12.70;99.90
11188;DHT22;5650;52.700;7.306;2023-09-30T06:27:51;12.70;99.90
11188;DHT22;5650;52.700;7.306;2023-09-30T06:30:18;12.80;99.90
11188;DHT22;5650;52.700;7.306;2023-09-30T06:32:46;12.80;99.90
11188;DHT22;5650;52.700;7.306;2023-09-30T06:35:13;12.80;99.90
11188;DHT22;5650;52.700;7.306;2023-09-30T06:37:41;12.90;99.90
11188;DHT22;5650;52.700;7.306;2023-09-30T06:40:17;12.90;99.90
11188;DHT22;5650;52.700;7.306;2023-09-30T06:42:52;13.00;99.90
11188;DHT22;5650;52.700;7.306;2023-09-30T06:45:25;13.00;99.90
11188;DHT22;5650;52.700;7.306;2023-09-30T06:48:01;13.10;99.90
11188;DHT22;5650;52.700;7.306;2023-09-30T06:50:31;13.20;99.90
11188;DHT22;5650;52.700;7.306;2023-09-30T06:53:07;13.20;99.90
11188;DHT22;5650;52.700;7.306;2023-09-30T06:55:41;13.30;99.90
11188;DHT22;5650;52.700;7.306;2023-09-30T06:58:10;13.40;99.90
11188;DHT22;5650;52.700;7.306;2023-09-30T07:00:38;13.40;99.90
11188;DHT22;5650;52.700;7.306;2023-09-30T07:03:05;13.60;99.90
11188;DHT22;5650;52.700;7.306;2023-09-30T07:05:33;13.80;99.90
11188;DHT22;5650;52.700;7.306;2023-09-30T07:08:00;14.20;99.90
11188;DHT22;5650;52.700;7.306;2023-09-30T07:10:27;14.40;99.90
11188;DHT22;5650;52.700;7.306;2023-09-30T07:13:01;14.70;99.90
11188;DHT22;5650;52.700;7.306;2023-09-30T07:15:32;15.10;99.90
11188;DHT22;5650;52.700;7.306;2023-09-30T07:18:00;15.30;99.90
11188;DHT22;5650;52.700;7.306;2023-09-30T07:20:28;15.50;99.90
11188;DHT22;5650;52.700;7.306;2023-09-30T07:22:58;15.70;99.90
11188;DHT22;5650;52.700;7.306;2023-09-30T07:25:25;15.90;99.90
11188;DHT22;5650;52.700;7.306;2023-09-30T07:27:52;16.00;99.90
11188;DHT22;5650;52.700;7.306;2023-09-30T07:30:26;16.10;99.90
11188;DHT22;5650;52.700;7.306;2023-09-30T07:32:57;16.30;99.90
11188;DHT22;5650;52.700;7.306;2023-09-30T07:35:31;16.50;99.90
11188;DHT22;5650;52.700;7.306;2023-09-30T07:38:02;16.60;99.90
11188;DHT22;5650;52.700;7.306;2023-09-30T07:40:30;16.70;99.90
11188;DHT22;5650;52.700;7.306;2023-09-30T07:42:58;16.80;99.90
11188;DHT22;5650;52.700;7.306;2023-09-30T07:45:31;16.80;99.90
11188;DHT22;5650;52.700;7.306;2023-09-30T07:48:00;16.90;99.90
11188;DHT22;5650;52.700;7.306;2023-09-30T07:50:31;17.10;99.90
11188;DHT22;5650;52.700;7.306;2023-09-30T07:52:59;17.40;99.90
11188;DHT22;5650;52.700;7.306;2023-09-30T07:55:32;17.60;99.90
11188;DHT22;5650;52.700;7.306;2023-09-30T07:58:03;17.80;99.90
11188;DHT22;5650;52.700;7.306;2023-09-30T08:00:30;18.10;99.90
11188;DHT22;5650;52.700;7.306;2023-09-30T08:03:04;18.30;99.90
11188;DHT22;5650;52.700;7.306;2023-09-30T08:05:38;18.40;99.90
11188;DHT22;5650;52.700;7.306;2023-09-30T08:08:08;18.50;99.90
11188;DHT22;5650;52.700;7.306;2023-09-30T08:10:38;18.60;99.90
11188;DHT22;5650;52.700;7.306;2023-09-30T08:13:05;18.60;99.90
11188;DHT22;5650;52.700;7.306;2023-09-30T08:15:32;18.50;99.90
11188;DHT22;5650;52.700;7.306;2023-09-30T08:18:00;18.50;99.90
11188;DHT22;5650;52.700;7.306;2023-09-30T08:20:30;18.40;99.90
11188;DHT22;5650;52.700;7.306;2023-09-30T08:23:06;18.50;99.90
11188;DHT22;5650;52.700;7.306;2023-09-30T08:25:34;18.30;99.90
11188;DHT22;5650;52.700;7.306;2023-09-30T08:28:01;18.10;99.90
11188;DHT22;5650;52.700;7.306;2023-09-30T08:30:28;18.00;99.90
11188;DHT22;5650;52.700;7.306;2023-09-30T08:32:59;17.90;99.90
11188;DHT22;5650;52.700;7.306;2023-09-30T08:35:30;17.80;99.90
11188;DHT22;5650;52.700;7.306;2023-09-30T08:38:00;17.80;99.90
11188;DHT22;5650;52.700;7.306;2023-09-30T08:40:33;17.70;99.90
11188;DHT22;5650;52.700;7.306;2023-09-30T08:43:11;17.60;99.90
11188;DHT22;5650;52.700;7.306;2023-09-30T08:45:47;17.60;99.90
11188;DHT22;5650;52.700;7.306;2023-09-30T08:48:18;17.50;99.90
11188;DHT22;5650;52.700;7.306;2023-09-30T08:50:51;17.50;99.90
11188;DHT22;5650;52.700;7.306;2023-09-30T08:53:20;17.50;99.90
11188;DHT22;5650;52.700;7.306;2023-09-30T08:55:53;17.50;99.90
11188;DHT22;5650;52.700;7.306;2023-09-30T08:58:24;17.50;99.90
11188;DHT22;5650;52.700;7.306;2023-09-30T09:00:56;17.60;99.90
11188;DHT22;5650;52.700;7.306;2023-09-30T09:03:23;17.60;99.90
11188;DHT22;5650;52.700;7.306;2023-09-30T09:05:56;17.60;99.90
11188;DHT22;5650;52.700;7.306;2023-09-30T09:08:28;17.70;99.90
11188;DHT22;5650;52.700;7.306;2023-09-30T09:10:59;17.70;99.90
11188;DHT22;5650;52.700;7.306;2023-09-30T09:13:49;17.80;99.90
11188;DHT22;5650;52.700;7.306;2023-09-30T09:16:19;18.00;99.90
11188;DHT22;5650;52.700;7.306;2023-09-30T09:18:46;18.20;99.90
11188;DHT22;5650;52.700;7.306;2023-09-30T09:21:16;18.40;99.90
11188;DHT22;5650;52.700;7.306;2023-09-30T09:23:46;18.60;99.90
11188;DHT22;5650;52.700;7.306;2023-09-30T09:26:23;18.80;99.90
11188;DHT22;5650;52.700;7.306;2023-09-30T09:29:00;18.80;99.90
11188;DHT22;5650;52.700;7.306;2023-09-30T09:31:28;18.90;99.90
11188;DHT22;5650;52.700;7.306;2023-09-30T09:33:56;18.90;99.90
11188;DHT22;5650;52.700;7.306;2023-09-30T09:36:38;19.00;99.90
11188;DHT22;5650;52.700;7.306;2023-09-30T09:39:09;19.00;99.90
11188;DHT22;5650;52.700;7.306;2023-09-30T09:41:49;18.90;99.90
11188;DHT22;5650;52.700;7.306;2023-09-30T09:44:21;18.80;99.90
11188;DHT22;5650;52.700;7.306;2023-09-30T09:46:49;18.80;99.90
11188;DHT22;5650;52.700;7.306;2023-09-30T09:49:20;18.70;99.90
11188;DHT22;5650;52.700;7.306;2023-09-30T09:51:52;18.60;99.90
11188;DHT22;5650;52.700;7.306;2023-09-30T09:54:21;18.60;99.90
11188;DHT22;5650;52.700;7.306;2023-09-30T09:56:53;18.60;99.90
11188;DHT22;5650;52.700;7.306;2023-09-30T09:59:32;18.70;99.90
11188;DHT22;5650;52.700;7.306;2023-09-30T10:02:00;18.70;99.90
11188;DHT22;5650;52.700;7.306;2023-09-30T10:04:28;18.70;99.90
11188;DHT22;5650;52.700;7.306;2023-09-30T10:07:01;18.70;99.90
11188;DHT22;5650;52.700;7.306;2023-09-30T10:09:30;18.60;99.90
11188;DHT22;5650;52.700;7.306;2023-09-30T10:12:01;18.60;99.90
11188;DHT22;5650;52.700;7.306;2023-09-30T10:14:32;18.70;99.90
11188;DHT22;5650;52.700;7.306;2023-09-30T10:17:02;18.80;99.90
11188;DHT22;5650;52.700;7.306;2023-09-30T10:19:33;18.90;99.90
11188;DHT22;5650;52.700;7.306;2023-09-30T10:22:23;19.00;99.90
11188;DHT22;5650;52.700;7.306;2023-09-30T10:24:52;19.10;99.90
11188;DHT22;5650;52.700;7.306;2023-09-30T10:27:33;19.00;99.90
11188;DHT22;5650;52.700;7.306;2023-09-30T10:30:12;19.10;99.90
11188;DHT22;5650;52.700;7.306;2023-09-30T10:33:12;19.10;99.90
11188;DHT22;5650;52.700;7.306;2023-09-30T10:35:46;19.20;99.90
11188;DHT22;5650;52.700;7.306;2023-09-30T10:38:39;19.20;99.90
11188;DHT22;5650;52.700;7.306;2023-09-30T10:41:48;19.20;99.90
11188;DHT22;5650;52.700;7.306;2023-09-30T10:44:33;19.30;99.90
11188;DHT22;5650;52.700;7.306;2023-09-30T10:47:37;19.40;99.90
11188;DHT22;5650;52.700;7.306;2023-09-30T10:53:08;19.40;99.90
11188;DHT22;5650;52.700;7.306;2023-09-30T10:55:39;19.40;99.90
11188;DHT22;5650;52.700;7.306;2023-09-30T10:58:10;19.40;99.90
11188;DHT22;5650;52.700;7.306;2023-09-30T11:00:39;19.40;99.90
11188;DHT22;5650;52.700;7.306;2023-09-30T11:03:11;19.40;99.90
11188;DHT22;5650;52.700;7.306;2023-09-30T11:05:38;19.40;99.90
11188;DHT22;5650;52.700;7.306;2023-09-30T11:08:06;19.40;99.90
11188;DHT22;5650;52.700;7.306;2023-09-30T11:10:33;19.50;99.90
11188;DHT22;5650;52.700;7.306;2023-09-30T11:13:09;19.50;99.90
11188;DHT22;5650;52.700;7.306;2023-09-30T11:15:38;19.50;99.90
11188;DHT22;5650;52.700;7.306;2023-09-30T11:18:21;19.40;99.90
11188;DHT22;5650;52.700;7.306;2023-09-30T11:21:04;19.30;99.90
11188;DHT22;5650;52.700;7.306;2023-09-30T11:23:32;19.30;99.90
11188;DHT22;5650;52.700;7.306;2023-09-30T11:26:02;19.30;99.90
11188;DHT22;5650;52.700;7.306;2023-09-30T11:28:40;19.40;99.90
11188;DHT22;5650;52.700;7.306;2023-09-30T11:31:10;19.40;99.90
11188;DHT22;5650;52.700;7.306;2023-09-30T11:33:52;19.40;99.90
11188;DHT22;5650;52.700;7.306;2023-09-30T11:36:22;19.40;99.90
11188;DHT22;5650;52.700;7.306;2023-09-30T11:38:53;19.50;99.90
11188;DHT22;5650;52.700;7.306;2023-09-30T11:41:33;19.50;99.90
11188;DHT22;5650;52.700;7.306;2023-09-30T11:44:04;19.50;99.90
11188;DHT22;5650;52.700;7.306;2023-09-30T11:46:49;19.50;99.90
11188;DHT22;5650;52.700;7.306;2023-09-30T11:49:34;19.50;99.90
11188;DHT22;5650;52.700;7.306;2023-09-30T11:52:03;19.50;99.90
11188;DHT22;5650;52.700;7.306;2023-09-30T11:54:32;19.50;99.90
11188;DHT22;5650;52.700;7.306;2023-09-30T11:57:00;19.60;99.90
11188;DHT22;5650;52.700;7.306;2023-09-30T11:59:27;19.60;99.90
11188;DHT22;5650;52.700;7.306;2023-09-30T12:01:57;19.60;99.90
11188;DHT22;5650;52.700;7.306;2023-09-30T12:04:24;19.60;99.90
11188;DHT22;5650;52.700;7.306;2023-09-30T12:06:52;19.60;99.90
11188;DHT22;5650;52.700;7.306;2023-09-30T12:09:28;19.70;99.90
11188;DHT22;5650;52.700;7.306;2023-09-30T12:12:00;19.70;99.90
11188;DHT22;5650;52.700;7.306;2023-09-30T12:14:28;19.70;99.90
11188;DHT22;5650;52.700;7.306;2023-09-30T12:16:58;19.60;99.90
11188;DHT22;5650;52.700;7.306;2023-09-30T12:19:28;19.60;99.90
11188;DHT22;5650;52.700;7.306;2023-09-30T12:21:55;19.60;99.90
11188;DHT22;5650;52.700;7.306;2023-09-30T12:24:29;19.50;99.90
11188;DHT22;5650;52.700;7.306;2023-09-30T12:27:03;19.50;99.90
11188;DHT22;5650;52.700;7.306;2023-09-30T12:29:36;19.50;99.90
11188;DHT22;5650;52.700;7.306;2023-09-30T12:32:12;19.50;99.90
11188;DHT22;5650;52.700;7.306;2023-09-30T12:34:40;19.50;99.90
11188;DHT22;5650;52.700;7.306;2023-09-30T12:37:07;19.50;99.90
11188;DHT22;5650;52.700;7.306;2023-09-30T12:39:34;19.50;99.90
11188;DHT22;5650;52.700;7.306;2023-09-30T12:42:02;19.40;99.90
11188;DHT22;5650;52.700;7.306;2023-09-30T12:44:34;19.30;99.90
11188;DHT22;5650;52.700;7.306;2023-09-30T12:47:01;19.30;99.90
11188;DHT22;5650;52.700;7.306;2023-09-30T12:49:37;19.20;99.90
11188;DHT22;5650;52.700;7.306;2023-09-30T12:52:07;19.30;99.90
11188;DHT22;5650;52.700;7.306;2023-09-30T12:54:34;19.40;99.90
11188;DHT22;5650;52.700;7.306;2023-09-30T12:57:06;19.50;99.90
11188;DHT22;5650;52.700;7.306;2023-09-30T12:59:34;19.50;99.90
11188;DHT22;5650;52.700;7.306;2023-09-30T13:02:01;19.70;99.90
11188;DHT22;5650;52.700;7.306;2023-09-30T13:04:28;19.70;99.90
11188;DHT22;5650;52.700;7.306;2023-09-30T13:06:56;19.80;99.90
11188;DHT22;5650;52.700;7.306;2023-09-30T13:09:23;19.90;99.90
11188;DHT22;5650;52.700;7.306;2023-09-30T13:11:50;19.90;99.90
11188;DHT22;5650;52.700;7.306;2023-09-30T13:14:20;20.00;99.90
11188;DHT22;5650;52.700;7.306;2023-09-30T13:16:50;20.00;99.90
11188;DHT22;5650;52.700;7.306;2023-09-30T13:19:20;20.10;99.90
11188;DHT22;5650;52.700;7.306;2023-09-30T13:21:53;20.10;99.90
11188;DHT22;5650;52.700;7.306;2023-09-30T13:24:22;20.20;99.90
11188;DHT22;5650;52.700;7.306;2023-09-30T13:26:52;20.30;99.90
11188;DHT22;5650;52.700;7.306;2023-09-30T13:29:19;20.40;99.90
11188;DHT22;5650;52.700;7.306;2023-09-30T13:31:46;20.40;99.90
11188;DHT22;5650;52.700;7.306;2023-09-30T13:34:13;20.50;99.90
11188;DHT22;5650;52.700;7.306;2023-09-30T13:36:50;20.50;99.90
11188;DHT22;5650;52.700;7.306;2023-09-30T13:39:22;20.60;99.90
11188;DHT22;5650;52.700;7.306;2023-09-30T13:41:50;20.60;99.90
11188;DHT22;5650;52.700;7.306;2023-09-30T13:44:20;20.50;99.90
11188;DHT22;5650;52.700;7.306;2023-09-30T13:47:00;20.50;99.90
11188;DHT22;5650;52.700;7.306;2023-09-30T13:49:33;20.50;99.90
11188;DHT22;5650;52.700;7.306;2023-09-30T13:52:00;20.50;99.90
11188;DHT22;5650;52.700;7.306;2023-09-30T13:54:29;20.50;99.90
11188;DHT22;5650;52.700;7.306;2023-09-30T13:56:59;20.50;99.90
11188;DHT22;5650;52.700;7.306;2023-09-30T13:59:33;20.40;99.90
11188;DHT22;5650;52.700;7.306;2023-09-30T14:02:00;20.40;99.90
11188;DHT22;5650;52.700;7.306;2023-09-30T14:04:31;20.30;99.90
11188;DHT22;5650;52.700;7.306;2023-09-30T14:07:01;20.20;99.90
11188;DHT22;5650;52.700;7.306;2023-09-30T14:09:29;20.10;99.90
11188;DHT22;5650;52.700;7.306;2023-09-30T14:12:00;20.10;99.90
11188;DHT22;5650;52.700;7.306;2023-09-30T14:14:31;20.10;99.90
11188;DHT22;5650;52.700;7.306;2023-09-30T14:17:05;20.10;99.90
11188;DHT22;5650;52.700;7.306;2023-09-30T14:19:35;20.10;99.90
11188;DHT22;5650;52.700;7.306;2023-09-30T14:22:06;20.10;99.90
11188;DHT22;5650;52.700;7.306;2023-09-30T14:24:35;20.10;99.90
11188;DHT22;5650;52.700;7.306;2023-09-30T14:27:03;20.00;99.90
11188;DHT22;5650;52.700;7.306;2023-09-30T14:29:33;20.00;99.90
11188;DHT22;5650;52.700;7.306;2023-09-30T14:32:06;19.90;99.90
11188;DHT22;5650;52.700;7.306;2023-09-30T14:34:33;19.90;99.90
11188;DHT22;5650;52.700;7.306;2023-09-30T14:37:03;19.90;99.90
11188;DHT22;5650;52.700;7.306;2023-09-30T14:39:31;19.90;99.90
11188;DHT22;5650;52.700;7.306;2023-09-30T14:41:59;19.80;99.90
11188;DHT22;5650;52.700;7.306;2023-09-30T14:44:32;19.70;99.90
11188;DHT22;5650;52.700;7.306;2023-09-30T14:47:02;19.70;99.90
11188;DHT22;5650;52.700;7.306;2023-09-30T14:49:36;19.60;99.90
11188;DHT22;5650;52.700;7.306;2023-09-30T14:52:03;19.60;99.90
11188;DHT22;5650;52.700;7.306;2023-09-30T14:54:34;19.60;99.90
11188;DHT22;5650;52.700;7.306;2023-09-30T14:57:03;19.50;99.90
11188;DHT22;5650;52.700;7.306;2023-09-30T14:59:34;19.50;99.90
11188;DHT22;5650;52.700;7.306;2023-09-30T15:02:02;19.50;99.90
11188;DHT22;5650;52.700;7.306;2023-09-30T15:04:29;19.50;99.90
11188;DHT22;5650;52.700;7.306;2023-09-30T15:07:04;19.50;99.90
11188;DHT22;5650;52.700;7.306;2023-09-30T15:09:36;19.50;99.90
11188;DHT22;5650;52.700;7.306;2023-09-30T15:12:08;19.50;99.90
11188;DHT22;5650;52.700;7.306;2023-09-30T15:14:36;19.50;99.90
11188;DHT22;5650;52.700;7.306;2023-09-30T15:17:06;19.50;99.90
11188;DHT22;5650;52.700;7.306;2023-09-30T15:19:35;19.50;99.90
11188;DHT22;5650;52.700;7.306;2023-09-30T15:22:06;19.50;99.90
11188;DHT22;5650;52.700;7.306;2023-09-30T15:24:36;19.50;99.90
11188;DHT22;5650;52.700;7.306;2023-09-30T15:27:08;19.50;99.90
11188;DHT22;5650;52.700;7.306;2023-09-30T15:29:35;19.50;99.90
11188;DHT22;5650;52.700;7.306;2023-09-30T15:32:06;19.50;99.90
11188;DHT22;5650;52.700;7.306;2023-09-30T15:34:35;19.50;99.90
11188;DHT22;5650;52.700;7.306;2023-09-30T15:37:05;19.50;99.90
11188;DHT22;5650;52.700;7.306;2023-09-30T15:39:38;19.50;99.90
11188;DHT22;5650;52.700;7.306;2023-09-30T15:42:07;19.50;99.90
11188;DHT22;5650;52.700;7.306;2023-09-30T15:44:37;19.50;99.90
11188;DHT22;5650;52.700;7.306;2023-09-30T15:47:08;19.50;99.90
11188;DHT22;5650;52.700;7.306;2023-09-30T15:49:38;19.40;99.90
11188;DHT22;5650;52.700;7.306;2023-09-30T15:52:09;19.40;99.90
11188;DHT22;5650;52.700;7.306;2023-09-30T15:54:36;19.40;99.90
11188;DHT22;5650;52.700;7.306;2023-09-30T15:57:03;19.30;99.90
11188;DHT22;5650;52.700;7.306;2023-09-30T15:59:30;19.20;99.90
11188;DHT22;5650;52.700;7.306;2023-09-30T16:02:01;19.20;99.90
11188;DHT22;5650;52.700;7.306;2023-09-30T16:04:34;19.10;99.90
11188;DHT22;5650;52.700;7.306;2023-09-30T16:07:01;19.00;99.90
11188;DHT22;5650;52.700;7.306;2023-09-30T16:09:34;19.00;99.90
11188;DHT22;5650;52.700;7.306;2023-09-30T16:12:03;19.00;99.90